หน้าหลัก
METAR-TAF:

METAR-TAF

ท่าอากาศยาน :

ท่าอากาศยานนานาชาติเวลานา

มาเล, มัลดีฟส์

ละติจูด: 04-12N, ลองจิจูด: 073-32E, ความสูง: 2 ม.

การสังเกตสภาพอากาศปัจจุบัน

รายงานได้ทำขึ้นเมื่อ 32 นาทีที่แล้ว ณ เวลา 09:00 UTC
ลม 13 นอตจากตะวันออก/ตะวันออกเฉียงเหนือ
อุณหภูมิ 33°C
ความชื้น 63%
ความกดอากาศ 1008 hPa
ทัศนวิสัย 10 กม. หรือมากกว่า
มีเมฆน้อยที่ความสูง 1800 ฟุต

METAR: VRMM 250900Z 06013KT 9999 FEW018 33/25 Q1008 NOSIG

เวลา: 14:32 (09:32 UTC)

การพยากรณ์

รายงานได้ทำขึ้นเมื่อ 4 ชั่วโมงและ 32 นาทีที่แล้ว ณ เวลา 05:00 UTC
การพยากรณ์มีผลตั้งแต่วันที่ 25 ณ เวลา 06 UTC จนถึงวันที่ 26 ณ เวลา 12 UTC
ลม 10 นอตจากตะวันออกเฉียงเหนือ
ทัศนวิสัย 10 กม. หรือมากกว่า
มีเมฆน้อยที่ความสูง 1800 ฟุต
ชั่วคราว
ตั้งแต่วันที่ 25 ณ เวลา 09 UTC จนถึงวันที่ 25 ณ เวลา 15 UTC
มีเมฆน้อยที่ความสูง 1800 ฟุต, คิวมูโลนิมบัส.

TAF: VRMM 250500Z 2506/2612 05010KT 9999 FEW018 TEMPO 2509/2515 FEW018CB

สังเกตการณ์สภาพอากาศและพยากรณ์อากาศของสนามบินมากกว่า 4000 แห่ง (รายงาน METAR และ TAF).

สถานีที่ดูได้จะแสดงไว้ด้วยจุดสีเหลืองและสีแดงบนแผนที่.

เลื่อนเมาส์ไปเหนือจุดเพื่อดูชื่อสถานี.

แล้วคลิกเพื่อดูสังเกตการณ์และการพยากรณ์สภาพอากาศ.

ในการเปลี่ยนแผนที่: คลิกที่ปุ่มสีเขียวที่มีกากบาทสีดำเพื่อซูมเข้า; ที่ปุ่มสีเขียวที่มีขีดเพื่อซูมออก; หรือที่ลูกศรสีเขียวเพื่อไปยังแผนที่ที่อยู่ติดกัน.


METAR-TAF: